Saint Louis, MO

8:25 PM CST on February 01, 2015 (GMT -0600)
Soulard | Change Station
CLOSE
Current Station
Personal Weather Station
Location: Saint Louis, MO
Elevation: 535 ft
Nearby Weather Stations

Elev 535 ft 38.61 °N, 90.21 °W | Updated 10 minutes ago

Overcast
Overcast
31.1 °F
Feels Like 23 °F
N
9.9
Wind Variable Wind from WNW

Today
High -- | Low -- °F
--% Chance of Precip.
Yesterday
High -- | Low -- °F
Precip. -- in
7:06 AM 5:22 PM
Waxing Gibbous, 97% visible
Pressure 29.84 in
Visibility 8.0 miles
Clouds Overcast 1300 ft
Windchill 23 °F
Dew Point 28 °F
Humidity 90%
Rainfall 0.69 in
Snow Depth Not available.
UV 0 out of 12
Pollen .10 out of 12
Air Quality Not available.
Flu Activity Not available.
SPECI KSTL 020219Z 32019KT 8SM -SN OVC013 M01/M03 A2984 RMK AO2 P0000

More Conditions Fewer Conditions

Pressure 29.84 in
Visibility 8.0 miles
Clouds Overcast 1300 ft
Windchill 23 °F
Dew Point 28 °F
Humidity 90%
Rainfall 0.69 in
Snow Depth Not available.
UV 0 out of 12
Pollen .10 out of 12
Air Quality Not available.
Flu Activity Not available.
SPECI KSTL 020219Z 32019KT 8SM -SN OVC013 M01/M03 A2984 RMK AO2 P0000

More Conditions Fewer Conditions

10-Day Weather Forecast

Almanac

Astronomy

Feb. 01, 2015 Rise Set
Actual Time
Civil Twilight
Nautical Twilight
Astronomical Twilight
Moon
Length of Visible Light
Length of Day
Tomorrow will be .
, % of the Moon is Illuminated

Today's Extremes

State Highs State Lows

Community

WunderPhotos

Upload Photos

1,792,655 photos uploaded!

WunderBlogs® & News

Nearby

Air Quality

  Air Quality AQ Index Pollutant
Not available.

Snow Depth

Station Depth Elevation

Earthquake Activity

City Distance Mag. Time & Date
Minimum magnitude displayed is 2.5.

Coastal Water Temperatures

Place Temperature

Nearby Weather Stations